sensor_id;sensor_type;location;lat;lon;timestamp;pressure;altitude;pressure_sealevel;temperature;humidity
71465;BME280;59274;49.874;9.154;2023-04-30T00:00:25;100755.69;;;11.29;100.00
71465;BME280;59274;49.874;9.154;2023-04-30T00:02:50;100758.78;;;11.05;100.00
71465;BME280;59274;49.874;9.154;2023-04-30T00:05:16;100761.06;;;11.03;100.00
71465;BME280;59274;49.874;9.154;2023-04-30T00:07:41;100758.88;;;11.12;100.00
71465;BME280;59274;49.874;9.154;2023-04-30T00:10:08;100761.59;;;11.12;100.00
71465;BME280;59274;49.874;9.154;2023-04-30T00:12:34;100758.19;;;11.15;100.00
71465;BME280;59274;49.874;9.154;2023-04-30T00:14:59;100771.34;;;11.13;100.00
71465;BME280;59274;49.874;9.154;2023-04-30T00:17:25;100768.53;;;11.10;100.00
71465;BME280;59274;49.874;9.154;2023-04-30T00:19:51;100768.81;;;11.01;100.00
71465;BME280;59274;49.874;9.154;2023-04-30T00:22:16;100766.09;;;11.01;100.00
71465;BME280;59274;49.874;9.154;2023-04-30T00:24:42;100765.97;;;10.94;100.00
71465;BME280;59274;49.874;9.154;2023-04-30T00:27:07;100764.31;;;10.89;100.00
71465;BME280;59274;49.874;9.154;2023-04-30T00:29:32;100769.31;;;10.87;100.00
71465;BME280;59274;49.874;9.154;2023-04-30T00:31:58;100761.09;;;10.84;100.00
71465;BME280;59274;49.874;9.154;2023-04-30T00:34:23;100769.38;;;10.91;100.00
71465;BME280;59274;49.874;9.154;2023-04-30T00:36:49;100773.38;;;10.97;100.00
71465;BME280;59274;49.874;9.154;2023-04-30T00:39:15;100770.22;;;10.95;100.00
71465;BME280;59274;49.874;9.154;2023-04-30T00:41:41;100766.38;;;10.96;100.00
71465;BME280;59274;49.874;9.154;2023-04-30T00:44:06;100769.09;;;10.96;100.00
71465;BME280;59274;49.874;9.154;2023-04-30T00:46:32;100762.94;;;10.99;100.00
71465;BME280;59274;49.874;9.154;2023-04-30T00:48:57;100772.22;;;10.98;100.00
71465;BME280;59274;49.874;9.154;2023-04-30T00:51:25;100778.88;;;11.01;100.00
71465;BME280;59274;49.874;9.154;2023-04-30T00:53:51;100769.91;;;10.77;100.00
71465;BME280;59274;49.874;9.154;2023-04-30T00:56:17;100778.22;;;10.65;100.00
71465;BME280;59274;49.874;9.154;2023-04-30T00:58:42;100782.13;;;10.68;100.00
71465;BME280;59274;49.874;9.154;2023-04-30T01:01:08;100776.63;;;10.83;100.00
71465;BME280;59274;49.874;9.154;2023-04-30T01:03:34;100782.53;;;10.89;100.00
71465;BME280;59274;49.874;9.154;2023-04-30T01:06:02;100777.72;;;10.79;100.00
71465;BME280;59274;49.874;9.154;2023-04-30T01:08:29;100782.06;;;10.83;100.00
71465;BME280;59274;49.874;9.154;2023-04-30T01:11:38;100784.50;;;10.69;100.00
71465;BME280;59274;49.874;9.154;2023-04-30T01:14:15;100786.13;;;10.74;100.00
71465;BME280;59274;49.874;9.154;2023-04-30T01:17:06;100788.44;;;10.72;100.00
71465;BME280;59274;49.874;9.154;2023-04-30T01:19:42;100793.53;;;10.54;100.00
71465;BME280;59274;49.874;9.154;2023-04-30T01:23:06;100796.75;;;10.40;100.00
71465;BME280;59274;49.874;9.154;2023-04-30T01:28:14;100792.19;;;10.44;100.00
71465;BME280;59274;49.874;9.154;2023-04-30T01:30:44;100798.03;;;10.46;100.00
71465;BME280;59274;49.874;9.154;2023-04-30T01:33:13;100796.88;;;10.47;100.00
71465;BME280;59274;49.874;9.154;2023-04-30T01:35:45;100799.94;;;10.46;100.00
71465;BME280;59274;49.874;9.154;2023-04-30T01:38:28;100800.88;;;10.53;100.00
71465;BME280;59274;49.874;9.154;2023-04-30T01:41:14;100800.75;;;10.66;100.00
71465;BME280;59274;49.874;9.154;2023-04-30T01:43:46;100805.09;;;10.70;100.00
71465;BME280;59274;49.874;9.154;2023-04-30T01:46:29;100801.16;;;10.68;100.00
71465;BME280;59274;49.874;9.154;2023-04-30T01:51:41;100808.31;;;10.56;100.00
71465;BME280;59274;49.874;9.154;2023-04-30T01:54:22;100806.03;;;10.58;100.00
71465;BME280;59274;49.874;9.154;2023-04-30T01:57:15;100807.59;;;10.59;100.00
71465;BME280;59274;49.874;9.154;2023-04-30T01:59:43;100811.88;;;10.60;100.00
71465;BME280;59274;49.874;9.154;2023-04-30T02:02:10;100804.59;;;10.65;100.00
71465;BME280;59274;49.874;9.154;2023-04-30T02:04:35;100803.72;;;10.60;100.00
71465;BME280;59274;49.874;9.154;2023-04-30T02:07:01;100797.75;;;10.51;100.00
71465;BME280;59274;49.874;9.154;2023-04-30T02:09:26;100806.31;;;10.53;100.00
71465;BME280;59274;49.874;9.154;2023-04-30T02:11:51;100804.03;;;10.55;100.00
71465;BME280;59274;49.874;9.154;2023-04-30T02:14:17;100794.41;;;10.58;100.00
71465;BME280;59274;49.874;9.154;2023-04-30T02:16:42;100799.03;;;10.57;100.00
71465;BME280;59274;49.874;9.154;2023-04-30T02:19:08;100799.75;;;10.54;100.00
71465;BME280;59274;49.874;9.154;2023-04-30T02:21:33;100803.38;;;10.62;100.00
71465;BME280;59274;49.874;9.154;2023-04-30T02:23:58;100796.72;;;10.59;100.00
71465;BME280;59274;49.874;9.154;2023-04-30T02:26:24;100806.53;;;10.64;100.00
71465;BME280;59274;49.874;9.154;2023-04-30T02:28:50;100813.81;;;10.60;100.00
71465;BME280;59274;49.874;9.154;2023-04-30T02:31:16;100807.69;;;10.44;100.00
71465;BME280;59274;49.874;9.154;2023-04-30T02:33:41;100800.09;;;10.34;100.00
71465;BME280;59274;49.874;9.154;2023-04-30T02:36:08;100805.66;;;10.41;100.00
71465;BME280;59274;49.874;9.154;2023-04-30T02:38:33;100808.88;;;10.46;100.00
71465;BME280;59274;49.874;9.154;2023-04-30T02:40:59;100807.59;;;10.40;100.00
71465;BME280;59274;49.874;9.154;2023-04-30T02:43:24;100814.31;;;10.46;100.00
71465;BME280;59274;49.874;9.154;2023-04-30T02:45:49;100811.59;;;10.46;100.00
71465;BME280;59274;49.874;9.154;2023-04-30T02:48:15;100811.09;;;10.41;100.00
71465;BME280;59274;49.874;9.154;2023-04-30T02:50:40;100811.44;;;10.39;100.00
71465;BME280;59274;49.874;9.154;2023-04-30T02:53:06;100799.53;;;10.44;100.00
71465;BME280;59274;49.874;9.154;2023-04-30T02:55:31;100801.88;;;10.45;100.00
71465;BME280;59274;49.874;9.154;2023-04-30T02:57:57;100802.25;;;10.44;100.00
71465;BME280;59274;49.874;9.154;2023-04-30T03:00:22;100794.94;;;10.48;100.00
71465;BME280;59274;49.874;9.154;2023-04-30T03:02:47;100800.25;;;10.41;100.00
71465;BME280;59274;49.874;9.154;2023-04-30T03:05:13;100792.25;;;10.29;100.00
71465;BME280;59274;49.874;9.154;2023-04-30T03:07:40;100797.53;;;10.41;100.00
71465;BME280;59274;49.874;9.154;2023-04-30T03:10:06;100799.53;;;10.44;100.00
71465;BME280;59274;49.874;9.154;2023-04-30T03:12:31;100801.38;;;10.40;100.00
71465;BME280;59274;49.874;9.154;2023-04-30T03:14:57;100805.63;;;10.37;100.00
71465;BME280;59274;49.874;9.154;2023-04-30T03:17:22;100807.16;;;10.38;100.00
71465;BME280;59274;49.874;9.154;2023-04-30T03:19:49;100800.94;;;10.38;100.00
71465;BME280;59274;49.874;9.154;2023-04-30T03:22:14;100805.22;;;10.39;100.00
71465;BME280;59274;49.874;9.154;2023-04-30T03:24:40;100795.94;;;10.40;100.00
71465;BME280;59274;49.874;9.154;2023-04-30T03:27:05;100803.03;;;10.44;100.00
71465;BME280;59274;49.874;9.154;2023-04-30T03:29:31;100799.09;;;10.42;100.00
71465;BME280;59274;49.874;9.154;2023-04-30T03:31:56;100806.03;;;10.39;100.00
71465;BME280;59274;49.874;9.154;2023-04-30T03:34:22;100807.00;;;10.31;100.00
71465;BME280;59274;49.874;9.154;2023-04-30T03:36:47;100798.94;;;10.35;100.00
71465;BME280;59274;49.874;9.154;2023-04-30T03:39:13;100806.94;;;10.28;100.00
71465;BME280;59274;49.874;9.154;2023-04-30T03:41:40;100798.16;;;10.34;100.00
71465;BME280;59274;49.874;9.154;2023-04-30T03:44:05;100797.72;;;10.32;100.00
71465;BME280;59274;49.874;9.154;2023-04-30T03:46:32;100803.50;;;10.31;100.00
71465;BME280;59274;49.874;9.154;2023-04-30T03:48:58;100802.16;;;10.21;100.00
71465;BME280;59274;49.874;9.154;2023-04-30T03:51:23;100801.97;;;10.14;100.00
71465;BME280;59274;49.874;9.154;2023-04-30T03:53:49;100799.00;;;10.19;100.00
71465;BME280;59274;49.874;9.154;2023-04-30T03:56:14;100800.59;;;10.20;100.00
71465;BME280;59274;49.874;9.154;2023-04-30T03:58:40;100797.06;;;10.19;100.00
71465;BME280;59274;49.874;9.154;2023-04-30T04:01:05;100794.16;;;10.28;100.00
71465;BME280;59274;49.874;9.154;2023-04-30T04:03:33;100801.72;;;10.19;100.00
71465;BME280;59274;49.874;9.154;2023-04-30T04:05:58;100796.25;;;10.00;100.00
71465;BME280;59274;49.874;9.154;2023-04-30T04:08:24;100797.75;;;9.81;100.00
71465;BME280;59274;49.874;9.154;2023-04-30T04:10:49;100795.63;;;9.91;100.00
71465;BME280;59274;49.874;9.154;2023-04-30T04:13:15;100797.03;;;10.00;100.00
71465;BME280;59274;49.874;9.154;2023-04-30T04:15:40;100804.44;;;10.03;100.00
71465;BME280;59274;49.874;9.154;2023-04-30T04:18:05;100794.81;;;10.06;100.00
71465;BME280;59274;49.874;9.154;2023-04-30T04:20:32;100798.81;;;10.12;100.00
71465;BME280;59274;49.874;9.154;2023-04-30T04:22:58;100803.28;;;10.20;100.00
71465;BME280;59274;49.874;9.154;2023-04-30T04:25:23;100807.81;;;10.16;100.00
71465;BME280;59274;49.874;9.154;2023-04-30T04:27:50;100801.19;;;10.13;100.00
71465;BME280;59274;49.874;9.154;2023-04-30T04:30:16;100809.53;;;10.05;100.00
71465;BME280;59274;49.874;9.154;2023-04-30T04:32:42;100804.53;;;10.07;100.00
71465;BME280;59274;49.874;9.154;2023-04-30T04:35:13;100815.44;;;10.10;100.00
71465;BME280;59274;49.874;9.154;2023-04-30T04:37:39;100811.16;;;10.09;100.00
71465;BME280;59274;49.874;9.154;2023-04-30T04:40:05;100817.47;;;10.13;100.00
71465;BME280;59274;49.874;9.154;2023-04-30T04:42:31;100823.00;;;10.17;100.00
71465;BME280;59274;49.874;9.154;2023-04-30T04:44:56;100816.75;;;10.16;100.00
71465;BME280;59274;49.874;9.154;2023-04-30T04:47:22;100815.38;;;10.23;100.00
71465;BME280;59274;49.874;9.154;2023-04-30T04:49:47;100823.44;;;10.19;100.00
71465;BME280;59274;49.874;9.154;2023-04-30T04:52:15;100821.31;;;10.28;100.00
71465;BME280;59274;49.874;9.154;2023-04-30T04:54:41;100830.75;;;10.34;100.00
71465;BME280;59274;49.874;9.154;2023-04-30T04:57:06;100828.38;;;10.33;100.00
71465;BME280;59274;49.874;9.154;2023-04-30T04:59:31;100826.53;;;10.37;100.00
71465;BME280;59274;49.874;9.154;2023-04-30T05:01:57;100829.03;;;10.45;100.00
71465;BME280;59274;49.874;9.154;2023-04-30T05:04:22;100829.75;;;10.42;100.00
71465;BME280;59274;49.874;9.154;2023-04-30T05:06:48;100825.19;;;10.46;100.00
71465;BME280;59274;49.874;9.154;2023-04-30T05:09:13;100827.53;;;10.48;100.00
71465;BME280;59274;49.874;9.154;2023-04-30T05:11:38;100821.31;;;10.47;100.00
71465;BME280;59274;49.874;9.154;2023-04-30T05:14:05;100825.41;;;10.57;100.00
71465;BME280;59274;49.874;9.154;2023-04-30T05:16:31;100833.25;;;10.62;100.00
71465;BME280;59274;49.874;9.154;2023-04-30T05:18:56;100829.41;;;10.63;100.00
71465;BME280;59274;49.874;9.154;2023-04-30T05:21:22;100830.78;;;10.73;100.00
71465;BME280;59274;49.874;9.154;2023-04-30T05:23:47;100833.97;;;10.78;100.00
71465;BME280;59274;49.874;9.154;2023-04-30T05:26:13;100823.03;;;10.75;100.00
71465;BME280;59274;49.874;9.154;2023-04-30T05:28:38;100822.97;;;10.71;100.00
71465;BME280;59274;49.874;9.154;2023-04-30T05:31:05;100820.88;;;10.84;100.00
71465;BME280;59274;49.874;9.154;2023-04-30T05:33:30;100816.72;;;10.90;100.00
71465;BME280;59274;49.874;9.154;2023-04-30T05:35:56;100821.44;;;10.93;100.00
71465;BME280;59274;49.874;9.154;2023-04-30T05:38:21;100822.06;;;11.06;100.00
71465;BME280;59274;49.874;9.154;2023-04-30T05:40:47;100821.19;;;11.21;100.00
71465;BME280;59274;49.874;9.154;2023-04-30T05:43:12;100832.91;;;11.25;100.00
71465;BME280;59274;49.874;9.154;2023-04-30T05:45:37;100828.81;;;11.34;100.00
71465;BME280;59274;49.874;9.154;2023-04-30T05:48:03;100835.44;;;11.37;100.00
71465;BME280;59274;49.874;9.154;2023-04-30T05:50:29;100830.97;;;11.48;100.00
71465;BME280;59274;49.874;9.154;2023-04-30T05:52:54;100836.88;;;11.54;100.00
71465;BME280;59274;49.874;9.154;2023-04-30T05:55:20;100838.16;;;11.60;100.00
71465;BME280;59274;49.874;9.154;2023-04-30T05:57:45;100836.41;;;11.71;100.00
71465;BME280;59274;49.874;9.154;2023-04-30T06:00:11;100831.59;;;11.87;100.00
71465;BME280;59274;49.874;9.154;2023-04-30T06:02:36;100841.06;;;11.93;100.00
71465;BME280;59274;49.874;9.154;2023-04-30T06:05:02;100835.28;;;11.98;100.00
71465;BME280;59274;49.874;9.154;2023-04-30T06:07:27;100835.34;;;12.02;100.00
71465;BME280;59274;49.874;9.154;2023-04-30T06:09:53;100833.41;;;12.02;100.00
71465;BME280;59274;49.874;9.154;2023-04-30T06:12:18;100836.22;;;12.09;99.12
71465;BME280;59274;49.874;9.154;2023-04-30T06:14:44;100834.44;;;12.21;97.42
71465;BME280;59274;49.874;9.154;2023-04-30T06:17:11;100840.44;;;12.33;96.52
71465;BME280;59274;49.874;9.154;2023-04-30T06:19:36;100831.75;;;12.54;94.41
71465;BME280;59274;49.874;9.154;2023-04-30T06:22:03;100837.47;;;12.75;92.09
71465;BME280;59274;49.874;9.154;2023-04-30T06:24:28;100833.88;;;12.68;85.18
71465;BME280;59274;49.874;9.154;2023-04-30T06:26:54;100831.72;;;12.84;84.06
71465;BME280;59274;49.874;9.154;2023-04-30T06:29:19;100831.88;;;12.98;82.66
71465;BME280;59274;49.874;9.154;2023-04-30T06:31:45;100829.97;;;13.02;77.59
71465;BME280;59274;49.874;9.154;2023-04-30T06:34:10;100834.34;;;13.10;77.22
71465;BME280;59274;49.874;9.154;2023-04-30T06:36:36;100823.16;;;13.19;75.89
71465;BME280;59274;49.874;9.154;2023-04-30T06:39:01;100834.88;;;13.19;74.36
71465;BME280;59274;49.874;9.154;2023-04-30T06:41:27;100832.56;;;13.25;71.41
71465;BME280;59274;49.874;9.154;2023-04-30T06:43:52;100829.50;;;13.30;72.44
71465;BME280;59274;49.874;9.154;2023-04-30T06:46:18;100830.66;;;13.29;73.08
71465;BME280;59274;49.874;9.154;2023-04-30T06:48:43;100832.69;;;13.39;75.08
71465;BME280;59274;49.874;9.154;2023-04-30T06:51:08;100828.81;;;13.40;72.19
71465;BME280;59274;49.874;9.154;2023-04-30T06:53:34;100822.22;;;13.45;71.74
71465;BME280;59274;49.874;9.154;2023-04-30T06:55:59;100819.91;;;13.50;73.78
71465;BME280;59274;49.874;9.154;2023-04-30T06:58:25;100823.84;;;13.53;70.30
71465;BME280;59274;49.874;9.154;2023-04-30T07:00:50;100829.34;;;13.56;74.55
71465;BME280;59274;49.874;9.154;2023-04-30T07:03:16;100829.41;;;13.63;72.45
71465;BME280;59274;49.874;9.154;2023-04-30T07:05:41;100823.59;;;13.68;71.94
71465;BME280;59274;49.874;9.154;2023-04-30T07:08:07;100826.03;;;13.81;69.24
71465;BME280;59274;49.874;9.154;2023-04-30T07:10:33;100827.59;;;13.82;72.01
71465;BME280;59274;49.874;9.154;2023-04-30T07:12:58;100829.63;;;13.92;71.26
71465;BME280;59274;49.874;9.154;2023-04-30T07:15:24;100824.09;;;13.85;70.66
71465;BME280;59274;49.874;9.154;2023-04-30T07:17:49;100823.75;;;13.93;71.39
71465;BME280;59274;49.874;9.154;2023-04-30T07:20:15;100823.78;;;13.97;67.88
71465;BME280;59274;49.874;9.154;2023-04-30T07:22:42;100821.84;;;13.97;65.80
71465;BME280;59274;49.874;9.154;2023-04-30T07:25:11;100826.56;;;14.04;67.66
71465;BME280;59274;49.874;9.154;2023-04-30T07:27:37;100825.38;;;14.01;67.95
71465;BME280;59274;49.874;9.154;2023-04-30T07:30:03;100826.97;;;14.06;67.51
71465;BME280;59274;49.874;9.154;2023-04-30T07:32:29;100830.09;;;14.04;68.67
71465;BME280;59274;49.874;9.154;2023-04-30T07:34:57;100823.09;;;14.14;67.60
71465;BME280;59274;49.874;9.154;2023-04-30T07:37:22;100817.69;;;14.21;66.23
71465;BME280;59274;49.874;9.154;2023-04-30T07:39:48;100817.69;;;14.21;68.17
71465;BME280;59274;49.874;9.154;2023-04-30T07:42:13;100813.81;;;14.29;67.26
71465;BME280;59274;49.874;9.154;2023-04-30T07:44:38;100820.94;;;14.41;64.53
71465;BME280;59274;49.874;9.154;2023-04-30T07:47:05;100815.13;;;14.49;62.23
71465;BME280;59274;49.874;9.154;2023-04-30T07:49:30;100819.06;;;14.56;64.88
71465;BME280;59274;49.874;9.154;2023-04-30T07:51:56;100817.53;;;14.62;63.29
71465;BME280;59274;49.874;9.154;2023-04-30T07:54:22;100823.38;;;14.64;66.59
71465;BME280;59274;49.874;9.154;2023-04-30T07:56:47;100824.19;;;14.71;64.35
71465;BME280;59274;49.874;9.154;2023-04-30T07:59:13;100826.91;;;14.71;60.64
71465;BME280;59274;49.874;9.154;2023-04-30T08:01:39;100821.09;;;14.76;60.16
71465;BME280;59274;49.874;9.154;2023-04-30T08:04:04;100828.53;;;14.83;60.09
71465;BME280;59274;49.874;9.154;2023-04-30T08:06:31;100839.09;;;14.88;61.35
71465;BME280;59274;49.874;9.154;2023-04-30T08:08:56;100827.75;;;14.86;60.42
71465;BME280;59274;49.874;9.154;2023-04-30T08:11:22;100835.22;;;14.96;59.76
71465;BME280;59274;49.874;9.154;2023-04-30T08:13:47;100821.16;;;15.01;58.59
71465;BME280;59274;49.874;9.154;2023-04-30T08:16:12;100824.28;;;15.03;58.79
71465;BME280;59274;49.874;9.154;2023-04-30T08:18:38;100826.25;;;15.13;61.00
71465;BME280;59274;49.874;9.154;2023-04-30T08:21:08;100821.19;;;15.22;58.97
71465;BME280;59274;49.874;9.154;2023-04-30T08:23:33;100831.34;;;15.25;59.70
71465;BME280;59274;49.874;9.154;2023-04-30T08:25:59;100827.47;;;15.26;59.84
71465;BME280;59274;49.874;9.154;2023-04-30T08:28:24;100829.81;;;15.32;58.20
71465;BME280;59274;49.874;9.154;2023-04-30T08:30:50;100829.81;;;15.32;58.22
71465;BME280;59274;49.874;9.154;2023-04-30T08:33:15;100829.03;;;15.38;57.54
71465;BME280;59274;49.874;9.154;2023-04-30T08:35:40;100832.97;;;15.55;57.03
71465;BME280;59274;49.874;9.154;2023-04-30T08:38:06;100821.63;;;15.56;59.07
71465;BME280;59274;49.874;9.154;2023-04-30T08:40:34;100823.59;;;15.59;56.69
71465;BME280;59274;49.874;9.154;2023-04-30T08:43:07;100821.19;;;15.51;56.96
71465;BME280;59274;49.874;9.154;2023-04-30T08:45:34;100821.59;;;15.46;54.53
71465;BME280;59274;49.874;9.154;2023-04-30T08:48:02;100814.97;;;15.61;54.46
71465;BME280;59274;49.874;9.154;2023-04-30T08:50:29;100820.06;;;15.59;53.48
71465;BME280;59274;49.874;9.154;2023-04-30T08:52:56;100822.03;;;15.69;52.87
71465;BME280;59274;49.874;9.154;2023-04-30T08:55:22;100812.25;;;15.68;54.25
71465;BME280;59274;49.874;9.154;2023-04-30T08:57:47;100810.66;;;15.81;54.09
71465;BME280;59274;49.874;9.154;2023-04-30T09:00:13;100807.91;;;15.71;52.66
71465;BME280;59274;49.874;9.154;2023-04-30T09:02:42;100810.66;;;15.74;51.49
71465;BME280;59274;49.874;9.154;2023-04-30T09:05:12;100818.47;;;15.93;55.13
71465;BME280;59274;49.874;9.154;2023-04-30T09:07:43;100815.72;;;16.04;50.66
71465;BME280;59274;49.874;9.154;2023-04-30T09:10:17;100810.22;;;16.08;48.50
71465;BME280;59274;49.874;9.154;2023-04-30T09:12:42;100814.09;;;16.14;48.57
71465;BME280;59274;49.874;9.154;2023-04-30T09:15:10;100811.00;;;16.12;49.27
71465;BME280;59274;49.874;9.154;2023-04-30T09:17:36;100805.50;;;16.08;49.09
71465;BME280;59274;49.874;9.154;2023-04-30T09:20:10;100808.66;;;16.10;53.43
71465;BME280;59274;49.874;9.154;2023-04-30T09:22:37;100812.53;;;16.16;49.75
71465;BME280;59274;49.874;9.154;2023-04-30T09:25:04;100806.66;;;16.21;48.76
71465;BME280;59274;49.874;9.154;2023-04-30T09:27:30;100803.88;;;16.32;49.09
71465;BME280;59274;49.874;9.154;2023-04-30T09:29:55;100800.31;;;16.42;45.56
71465;BME280;59274;49.874;9.154;2023-04-30T09:32:21;100788.97;;;16.36;44.81
71465;BME280;59274;49.874;9.154;2023-04-30T09:34:46;100795.59;;;16.46;49.57
71465;BME280;59274;49.874;9.154;2023-04-30T09:37:12;100791.28;;;16.45;46.95
71465;BME280;59274;49.874;9.154;2023-04-30T09:39:50;100791.25;;;16.49;49.01
71465;BME280;59274;49.874;9.154;2023-04-30T09:42:17;100789.69;;;16.51;48.92
71465;BME280;59274;49.874;9.154;2023-04-30T09:44:46;100789.69;;;16.62;48.12
71465;BME280;59274;49.874;9.154;2023-04-30T09:47:14;100784.22;;;16.62;46.69
71465;BME280;59274;49.874;9.154;2023-04-30T09:49:41;100779.88;;;16.64;45.58
71465;BME280;59274;49.874;9.154;2023-04-30T09:52:07;100770.84;;;16.64;46.46
71465;BME280;59274;49.874;9.154;2023-04-30T09:54:34;100775.16;;;16.65;45.13
71465;BME280;59274;49.874;9.154;2023-04-30T09:57:01;100768.50;;;16.69;44.52
71465;BME280;59274;49.874;9.154;2023-04-30T09:59:34;100772.25;;;16.93;44.93
71465;BME280;59274;49.874;9.154;2023-04-30T10:02:07;100782.41;;;17.00;46.57
71465;BME280;59274;49.874;9.154;2023-04-30T10:04:42;100774.13;;;17.07;46.36
71465;BME280;59274;49.874;9.154;2023-04-30T10:07:12;100773.03;;;16.94;45.75
71465;BME280;59274;49.874;9.154;2023-04-30T10:09:42;100772.72;;;16.81;45.92
71465;BME280;59274;49.874;9.154;2023-04-30T10:12:13;100754.25;;;16.89;43.41
71465;BME280;59274;49.874;9.154;2023-04-30T10:14:45;100760.09;;;16.94;43.86
71465;BME280;59274;49.874;9.154;2023-04-30T10:17:13;100756.81;;;17.17;43.94
71465;BME280;59274;49.874;9.154;2023-04-30T10:19:45;100754.38;;;17.26;47.97
71465;BME280;59274;49.874;9.154;2023-04-30T10:22:10;100745.72;;;17.31;44.46
71465;BME280;59274;49.874;9.154;2023-04-30T10:24:36;100745.72;;;17.31;42.46
71465;BME280;59274;49.874;9.154;2023-04-30T10:27:02;100739.16;;;17.18;41.75
71465;BME280;59274;49.874;9.154;2023-04-30T10:29:28;100732.41;;;17.26;42.91
71465;BME280;59274;49.874;9.154;2023-04-30T10:31:53;100729.41;;;17.10;41.74
71465;BME280;59274;49.874;9.154;2023-04-30T10:37:34;100717.59;;;17.61;42.95
71465;BME280;59274;49.874;9.154;2023-04-30T10:40:00;100725.78;;;17.68;44.02
71465;BME280;59274;49.874;9.154;2023-04-30T10:42:29;100722.59;;;17.70;43.87
71465;BME280;59274;49.874;9.154;2023-04-30T10:44:54;100722.41;;;17.87;45.65
71465;BME280;59274;49.874;9.154;2023-04-30T10:47:27;100715.72;;;17.88;41.69
71465;BME280;59274;49.874;9.154;2023-04-30T10:50:01;100708.53;;;17.98;42.61
71465;BME280;59274;49.874;9.154;2023-04-30T10:52:28;100713.88;;;18.12;42.72
71465;BME280;59274;49.874;9.154;2023-04-30T10:54:54;100705.47;;;17.92;42.06
71465;BME280;59274;49.874;9.154;2023-04-30T10:57:20;100706.34;;;17.86;42.40
71465;BME280;59274;49.874;9.154;2023-04-30T11:02:15;100701.41;;;18.04;39.22
71465;BME280;59274;49.874;9.154;2023-04-30T11:05:07;100704.09;;;18.11;38.71
71465;BME280;59274;49.874;9.154;2023-04-30T11:07:33;100696.56;;;18.15;40.57
71465;BME280;59274;49.874;9.154;2023-04-30T11:10:00;100693.13;;;18.38;38.58
71465;BME280;59274;49.874;9.154;2023-04-30T11:12:26;100695.03;;;18.41;38.79
71465;BME280;59274;49.874;9.154;2023-04-30T11:14:59;100684.91;;;18.65;39.72
71465;BME280;59274;49.874;9.154;2023-04-30T11:17:26;100690.84;;;18.87;39.38
71465;BME280;59274;49.874;9.154;2023-04-30T11:19:53;100677.63;;;19.01;39.28
71465;BME280;59274;49.874;9.154;2023-04-30T11:22:23;100689.59;;;19.14;41.08
71465;BME280;59274;49.874;9.154;2023-04-30T11:27:24;100677.84;;;19.97;37.76
71465;BME280;59274;49.874;9.154;2023-04-30T11:29:51;100674.41;;;19.73;35.16
71465;BME280;59274;49.874;9.154;2023-04-30T11:32:21;100667.34;;;19.72;35.59
71465;BME280;59274;49.874;9.154;2023-04-30T11:34:48;100670.97;;;20.05;37.82
71465;BME280;59274;49.874;9.154;2023-04-30T11:37:35;100679.75;;;20.55;36.25
71465;BME280;59274;49.874;9.154;2023-04-30T11:40:09;100670.38;;;20.53;36.58
71465;BME280;59274;49.874;9.154;2023-04-30T11:42:36;100669.41;;;20.92;35.28
71465;BME280;59274;49.874;9.154;2023-04-30T11:47:50;100664.50;;;20.99;33.27
71465;BME280;59274;49.874;9.154;2023-04-30T11:50:18;100663.63;;;21.35;34.91
71465;BME280;59274;49.874;9.154;2023-04-30T11:52:50;100656.56;;;21.46;34.69
71465;BME280;59274;49.874;9.154;2023-04-30T11:55:20;100663.81;;;21.57;33.44
71465;BME280;59274;49.874;9.154;2023-04-30T11:57:52;100658.91;;;21.48;34.28
71465;BME280;59274;49.874;9.154;2023-04-30T12:00:21;100652.91;;;21.66;34.70
71465;BME280;59274;49.874;9.154;2023-04-30T12:02:48;100655.97;;;21.97;36.22
71465;BME280;59274;49.874;9.154;2023-04-30T12:05:15;100644.59;;;21.66;34.33
71465;BME280;59274;49.874;9.154;2023-04-30T12:07:55;100646.16;;;22.08;34.20
71465;BME280;59274;49.874;9.154;2023-04-30T12:10:22;100646.06;;;22.24;35.83
71465;BME280;59274;49.874;9.154;2023-04-30T12:12:49;100648.94;;;22.59;33.00
71465;BME280;59274;49.874;9.154;2023-04-30T12:15:22;100653.66;;;21.95;34.40
71465;BME280;59274;49.874;9.154;2023-04-30T12:17:51;100650.97;;;21.92;33.20
71465;BME280;59274;49.874;9.154;2023-04-30T12:20:19;100646.63;;;22.45;31.72
71465;BME280;59274;49.874;9.154;2023-04-30T12:22:46;100649.59;;;22.00;33.66
71465;BME280;59274;49.874;9.154;2023-04-30T12:25:14;100646.41;;;22.39;33.90
71465;BME280;59274;49.874;9.154;2023-04-30T12:27:52;100650.03;;;22.61;33.52
71465;BME280;59274;49.874;9.154;2023-04-30T12:30:20;100647.78;;;21.93;35.32
71465;BME280;59274;49.874;9.154;2023-04-30T12:32:49;100649.72;;;22.34;35.46
71465;BME280;59274;49.874;9.154;2023-04-30T12:35:22;100649.16;;;22.64;34.47
71465;BME280;59274;49.874;9.154;2023-04-30T12:38:05;100643.06;;;22.19;33.38
71465;BME280;59274;49.874;9.154;2023-04-30T12:40:31;100642.97;;;22.22;35.29
71465;BME280;59274;49.874;9.154;2023-04-30T12:43:04;100644.72;;;22.04;33.98
71465;BME280;59274;49.874;9.154;2023-04-30T12:45:49;100633.53;;;22.07;33.63
71465;BME280;59274;49.874;9.154;2023-04-30T12:48:23;100641.94;;;22.04;33.06
71465;BME280;59274;49.874;9.154;2023-04-30T12:50:58;100634.22;;;22.49;35.08
71465;BME280;59274;49.874;9.154;2023-04-30T12:53:24;100634.50;;;22.89;34.98
71465;BME280;59274;49.874;9.154;2023-04-30T12:56:12;100637.09;;;22.20;36.73
71465;BME280;59274;49.874;9.154;2023-04-30T12:58:41;100628.56;;;22.40;36.16
71465;BME280;59274;49.874;9.154;2023-04-30T13:01:16;100626.84;;;21.92;36.12
71465;BME280;59274;49.874;9.154;2023-04-30T13:03:42;100624.69;;;21.29;34.56